Aérodrome :
LOGIN :

S'inscrire | Disclaimer

   EN    FR    IT 

 










Légende :    VFR   VFR Marginal   IFR   IFR Intensif   IFR Très Intensif
Visi : 
Plafond : 
>= 8 km
>= 3000ft
5 à 8 km
1000 à 3000 ft
1500m à 5 km
500 à 1000 ft
800 à 1500m
200 à 500 ft
< 800m
< 200 ft
Symboles :   Orages  Brouillard  Fortes neiges  Fortes précipitations  Vent > 20 kt
SIGMETs :   Divers  Orages  Givrage  Turbulence  Onde Orograph.  Cendres Volcan.






- Altitude de l'aérodrome : 1302 ft
- Code IATA : GNB


LFLS - Grenoble / St. Geoirs

DERNIER METAR :
  • 240600Z AUTO VRB02KT 9999 FEW030 06/04 Q1027 TEMPO 0800 BCFG

METARs EXPIRÉS :
  • 240530Z AUTO 09005KT CAVOK 05/02 Q1027 TEMPO 0800 BCFG
  • 240500Z AUTO 09003KT 050V120 CAVOK 06/02 Q1027 TEMPO 0800 BCFG
  • 240430Z AUTO VRB03KT CAVOK 06/02 Q1027 TEMPO 0800 BCFG
  • 240400Z AUTO VRB03KT CAVOK 08/02 Q1027 TEMPO 0800 BCFG
  • 240330Z AUTO VRB02KT CAVOK 08/02 Q1027 TEMPO 0800 BCFG

TAF TAF LFLS
Valide du 24 à 03h jusqu'au 25 à 03h UTC


240200Z 2403/2503 VRB03KT CAVOK
PROB40
TEMPO 2404/2409 3000 BR SCT011
PROB30
TEMPO 2405/2408 0800 BCFG
FM240900 VRB04KT 9999 SCT017
BECMG 2412/2414 CAVOK
BECMG 2414/2416 09005KT
ATIS : +33 4 76 65 55 89



MET'MAP, la Météo Aéronautique d'un coup d'oeil ! - Copyright ORBIFLY Décembre 2007 - Disclaimer

ORBIFLY MET'MAP TEAM :

Programmation & Développement : Alexandra Zaïnal
Sur une idée originale de : Baudouin d'Aumeries
Assistance à la programmation : Marc-Olivier Méhu
Soutien technique & logistique : Manuel Goepfert

Contact : metmap@orbifly.com




SOURCES & CREDITS :

   NOAA